Time;durP1;ratioP1;P1;durP2;ratioP2;P2;SDS_P1;SDS_P2;PMS_P1;PMS_P2;Temp;Humidity;BMP_temperature;BMP_pressure;BME280_temperature;BME280_humidity;BME280_pressure;Samples;Min_cycle;Max_cycle;Signal;HPM_P1;HPM_P2
2022/03/14 00:00:19;;;;;;;45.92;17.60;;;;;;;-1.86;69.29;95882.56;4962097;28;20221;-80
2022/03/14 00:02:48;;;;;;;42.72;17.77;;;;;;;-1.81;68.69;95884.59;4963687;28;20662;-81
2022/03/14 00:05:17;;;;;;;63.17;21.85;;;;;;;-1.76;69.24;95881.25;4967312;28;20245;-81
2022/03/14 00:07:45;;;;;;;50.30;20.55;;;;;;;-1.86;68.08;95881.75;4953239;28;20294;-80
2022/03/14 00:10:15;;;;;;;51.38;18.85;;;;;;;-1.95;67.68;95881.25;4971889;28;20206;-80
2022/03/14 00:12:43;;;;;;;49.95;19.33;;;;;;;-2.02;68.55;95882.31;4958853;28;20873;-80
2022/03/14 00:15:12;;;;;;;39.13;16.08;;;;;;;-2.04;68.33;95889.69;4971995;28;20214;-81
2022/03/14 00:17:40;;;;;;;36.30;16.75;;;;;;;-2.20;68.69;95891.88;4971831;28;20270;-81
2022/03/14 00:20:11;;;;;;;48.90;17.35;;;;;;;-2.33;69.01;95891.97;4960950;28;20281;-81
2022/03/14 00:22:40;;;;;;;50.22;18.75;;;;;;;-2.27;70.46;95896.41;4972553;28;20325;-81
2022/03/14 00:25:08;;;;;;;37.30;16.58;;;;;;;-2.26;71.44;95890.06;4964914;28;20207;-81
2022/03/14 00:27:37;;;;;;;35.75;15.40;;;;;;;-2.23;70.10;95900.25;4953875;28;20285;-80
2022/03/14 00:30:07;;;;;;;53.30;24.08;;;;;;;-2.30;69.11;95886.22;4964026;28;20198;-80
2022/03/14 00:32:37;;;;;;;35.55;17.35;;;;;;;-2.38;69.75;95894.44;4961097;28;20285;-79
2022/03/14 00:35:05;;;;;;;43.63;18.15;;;;;;;-2.45;72.14;95901.63;4963982;28;20245;-80
2022/03/14 00:37:34;;;;;;;41.83;17.83;;;;;;;-2.35;71.25;95903.84;4967613;28;20235;-80
2022/03/14 00:40:02;;;;;;;39.53;20.67;;;;;;;-2.40;71.85;95901.00;4954907;28;20207;-80
2022/03/14 00:42:28;;;;;;;47.03;19.42;;;;;;;-2.33;71.37;95902.59;4967732;28;20203;-79
2022/03/14 00:44:55;;;;;;;36.90;17.25;;;;;;;-2.40;71.48;95907.13;4954373;29;20281;-79
2022/03/14 00:47:23;;;;;;;46.38;19.17;;;;;;;-2.36;72.36;95905.66;4958305;28;20238;-80
2022/03/14 00:49:50;;;;;;;43.65;16.45;;;;;;;-2.38;71.64;95913.03;4973133;28;20282;-79
2022/03/14 00:52:17;;;;;;;36.47;16.08;;;;;;;-2.45;71.82;95916.75;4959694;28;20585;-79
2022/03/14 00:54:46;;;;;;;43.83;14.68;;;;;;;-2.54;71.84;95917.00;4960544;28;20648;-79
2022/03/14 00:57:14;;;;;;;38.83;15.15;;;;;;;-2.57;71.45;95916.63;4965769;28;20231;-79
2022/03/14 00:59:41;;;;;;;31.35;13.38;;;;;;;-2.63;71.65;95917.47;4952713;28;20242;-79
2022/03/14 01:02:09;;;;;;;32.38;12.55;;;;;;;-2.66;70.79;95912.59;4966806;28;20207;-79
2022/03/14 01:04:39;;;;;;;38.72;14.15;;;;;;;-2.88;71.17;95926.19;4955239;28;20207;-79
2022/03/14 01:07:06;;;;;;;32.33;14.77;;;;;;;-2.72;71.42;95918.75;4955336;28;20694;-79
2022/03/14 01:09:33;;;;;;;31.58;12.75;;;;;;;-2.80;70.98;95926.97;4955671;28;20270;-79
2022/03/14 01:12:03;;;;;;;32.45;11.77;;;;;;;-2.74;71.01;95926.94;4967868;28;20222;-80
2022/03/14 01:14:30;;;;;;;33.55;12.68;;;;;;;-2.72;71.63;95929.34;4956140;28;20218;-80
2022/03/14 01:16:59;;;;;;;26.40;11.55;;;;;;;-2.64;71.55;95923.81;4966854;28;20685;-81
2022/03/14 01:19:26;;;;;;;25.92;10.55;;;;;;;-2.65;71.14;95924.84;4965634;28;20324;-79
2022/03/14 01:21:53;;;;;;;33.58;11.38;;;;;;;-2.78;71.92;95930.22;4961647;28;20214;-80
2022/03/14 01:24:24;;;;;;;25.48;9.85;;;;;;;-2.78;71.08;95922.25;4970863;28;20548;-79
2022/03/14 01:26:52;;;;;;;30.52;11.65;;;;;;;-2.82;71.00;95929.00;4963641;28;20246;-79
2022/03/14 01:29:23;;;;;;;21.35;10.10;;;;;;;-2.99;70.52;95932.13;4961168;28;20203;-79
2022/03/14 01:31:54;;;;;;;34.58;14.23;;;;;;;-3.10;70.78;95942.59;4963589;28;20231;-79
2022/03/14 01:34:22;;;;;;;29.20;11.88;;;;;;;-3.24;71.56;95936.50;4965583;28;20564;-79
2022/03/14 01:36:51;;;;;;;26.67;11.60;;;;;;;-3.25;71.79;95940.19;4963911;28;20210;-80
2022/03/14 01:39:17;;;;;;;24.65;10.98;;;;;;;-3.36;72.34;95933.72;4955550;28;20285;-80
2022/03/14 01:41:48;;;;;;;23.45;8.98;;;;;;;-3.33;72.66;95932.47;4965775;28;20198;-80
2022/03/14 01:44:16;;;;;;;22.95;10.00;;;;;;;-3.41;72.89;95945.94;4969165;28;20223;-80
2022/03/14 01:46:49;;;;;;;22.98;10.18;;;;;;;-3.58;73.82;95949.06;4958780;29;20267;-80
2022/03/14 01:49:18;;;;;;;28.20;11.70;;;;;;;-3.48;73.66;95950.44;4963722;28;20277;-80
2022/03/14 01:51:45;;;;;;;16.38;10.05;;;;;;;-3.39;73.41;95943.91;4962750;28;20612;-80
2022/03/14 01:54:12;;;;;;;25.27;10.95;;;;;;;-3.56;72.83;95945.38;4968283;28;20226;-79
2022/03/14 01:56:41;;;;;;;30.45;12.55;;;;;;;-3.29;72.37;95942.47;4956594;28;20207;-80
2022/03/14 01:59:08;;;;;;;25.05;11.48;;;;;;;-3.12;72.86;95950.75;4968349;28;20253;-81
2022/03/14 02:01:35;;;;;;;25.33;12.15;;;;;;;-3.06;71.90;95949.91;4968668;28;20205;-80
2022/03/14 02:04:05;;;;;;;28.15;12.38;;;;;;;-2.99;72.98;95950.69;4965745;28;20213;-79
2022/03/14 02:06:35;;;;;;;35.20;13.55;;;;;;;-2.98;71.40;95954.97;4965656;28;20698;-79
2022/03/14 02:09:03;;;;;;;34.75;13.45;;;;;;;-2.92;71.74;95951.47;4969371;28;20601;-80
2022/03/14 02:11:30;;;;;;;32.13;13.52;;;;;;;-3.01;72.45;95958.06;4962372;28;20203;-80
2022/03/14 02:13:57;;;;;;;33.70;15.02;;;;;;;-3.02;72.22;95961.72;4976357;28;20617;-80
2022/03/14 02:16:24;;;;;;;36.53;14.10;;;;;;;-3.06;72.05;95960.50;4963057;28;20210;-80
2022/03/14 02:18:51;;;;;;;34.65;13.43;;;;;;;-3.09;71.98;95971.53;4964800;28;20242;-80
2022/03/14 02:21:19;;;;;;;26.92;11.50;;;;;;;-3.00;72.94;95969.44;4969041;28;20207;-80
2022/03/14 02:23:48;;;;;;;34.13;13.65;;;;;;;-3.11;71.82;95968.25;4955533;28;20207;-80
2022/03/14 02:26:15;;;;;;;25.63;11.18;;;;;;;-3.18;73.02;95979.94;4961506;28;20207;-79
2022/03/14 02:28:42;;;;;;;22.10;10.73;;;;;;;-3.16;73.56;95969.94;4963590;28;20320;-80
2022/03/14 02:31:09;;;;;;;28.08;11.32;;;;;;;-3.14;72.06;95984.56;4968149;28;20219;-80
2022/03/14 02:33:35;;;;;;;12.65;5.53;;;;;;;-2.88;70.08;95979.22;4955650;28;20223;-80
2022/03/14 02:36:02;;;;;;;33.92;14.25;;;;;;;-3.09;70.67;95990.06;4968708;28;20829;-80
2022/03/14 02:38:32;;;;;;;26.90;11.93;;;;;;;-3.19;72.14;95991.53;4969158;28;20240;-80
2022/03/14 02:40:59;;;;;;;20.90;9.38;;;;;;;-3.37;72.59;96000.13;4958431;28;20206;-80
2022/03/14 02:43:26;;;;;;;25.38;10.60;;;;;;;-3.33;72.79;96001.34;4969139;28;20271;-80
2022/03/14 02:45:54;;;;;;;36.38;13.88;;;;;;;-3.40;72.47;95997.88;4964181;28;20214;-80
2022/03/14 02:48:23;;;;;;;25.80;11.52;;;;;;;-3.51;73.13;95996.69;4977244;28;20348;-80
2022/03/14 02:50:53;;;;;;;28.55;12.63;;;;;;;-3.58;74.54;96004.66;4963706;28;20236;-80
2022/03/14 02:53:23;;;;;;;32.17;12.07;;;;;;;-3.43;75.28;96004.44;4963816;28;20238;-80
2022/03/14 02:56:05;;;;;;;27.25;11.00;;;;;;;-3.33;75.33;96006.66;4969877;28;20206;-79
2022/03/14 02:58:38;;;;;;;34.15;11.55;;;;;;;-3.17;75.22;96014.16;4969585;28;20225;-81
2022/03/14 03:01:05;;;;;;;32.35;12.32;;;;;;;-3.08;74.00;96010.25;4967331;28;20203;-80
2022/03/14 03:03:32;;;;;;;27.42;11.93;;;;;;;-3.10;74.30;96012.28;4957721;28;20222;-81
2022/03/14 03:05:59;;;;;;;31.33;12.95;;;;;;;-3.11;73.30;96013.31;4965708;28;20747;-81
2022/03/14 03:08:27;;;;;;;32.28;12.52;;;;;;;-3.14;73.01;96016.38;4963098;28;20270;-81
2022/03/14 03:10:58;;;;;;;24.80;10.30;;;;;;;-3.27;73.85;96021.69;4976121;28;20266;-79
2022/03/14 03:13:28;;;;;;;20.67;8.80;;;;;;;-3.13;73.67;96018.00;4961047;28;20676;-80
2022/03/14 03:15:55;;;;;;;17.92;8.35;;;;;;;-3.21;74.02;96023.53;4961358;28;20665;-80
2022/03/14 03:18:24;;;;;;;17.23;7.65;;;;;;;-3.16;74.06;96023.75;4960981;28;20258;-81
2022/03/14 03:20:51;;;;;;;18.00;7.28;;;;;;;-3.25;72.66;96024.97;4974724;28;20206;-81
2022/03/14 03:23:21;;;;;;;11.43;5.22;;;;;;;-3.23;71.65;96025.56;4968220;28;20725;-81
2022/03/14 03:25:48;;;;;;;17.95;6.80;;;;;;;-3.26;70.87;96032.09;4967962;28;20210;-81
2022/03/14 03:28:21;;;;;;;11.98;5.13;;;;;;;-3.44;71.54;96031.94;4960704;28;20759;-82
2022/03/14 03:30:49;;;;;;;11.32;5.50;;;;;;;-3.51;71.33;96038.25;4961122;28;20293;-82
2022/03/14 03:33:19;;;;;;;14.48;6.38;;;;;;;-3.58;72.34;96032.97;4967751;28;20258;-82
2022/03/14 03:35:46;;;;;;;14.27;5.65;;;;;;;-3.56;73.24;96043.38;4957127;28;20697;-81
2022/03/14 03:38:13;;;;;;;11.90;6.25;;;;;;;-3.53;74.02;96049.03;4974402;28;20273;-81
2022/03/14 03:40:40;;;;;;;15.30;5.80;;;;;;;-3.50;73.93;96047.81;4961246;28;20257;-81
2022/03/14 03:43:07;;;;;;;19.75;6.20;;;;;;;-3.48;73.16;96045.78;4973293;28;20203;-81
2022/03/14 03:45:35;;;;;;;11.85;6.03;;;;;;;-3.45;73.03;96050.69;4960182;28;20206;-80
2022/03/14 03:48:02;;;;;;;11.95;5.80;;;;;;;-3.50;72.84;96053.13;4962767;28;20202;-81
2022/03/14 03:50:29;;;;;;;12.82;6.35;;;;;;;-3.71;72.29;96052.31;4957340;28;20230;-81
2022/03/14 03:52:56;;;;;;;12.23;5.25;;;;;;;-3.68;72.51;96054.53;4964549;28;20227;-81
2022/03/14 03:55:23;;;;;;;14.90;5.65;;;;;;;-3.65;72.08;96064.72;4958437;28;20204;-80
2022/03/14 03:57:50;;;;;;;12.45;6.15;;;;;;;-3.74;72.12;96057.19;4963692;28;20207;-80
2022/03/14 04:00:19;;;;;;;13.27;5.93;;;;;;;-3.79;73.26;96059.63;4957386;28;20208;-79
2022/03/14 04:02:51;;;;;;;12.15;5.80;;;;;;;-3.79;72.36;96065.75;4964593;28;20613;-79
2022/03/14 04:05:21;;;;;;;9.32;4.78;;;;;;;-3.77;74.15;96058.41;4968467;28;20221;-79
2022/03/14 04:07:48;;;;;;;10.57;4.72;;;;;;;-3.74;73.02;96063.31;4967023;28;20665;-80
2022/03/14 04:10:17;;;;;;;13.80;5.97;;;;;;;-3.80;72.80;96069.41;4961597;28;20217;-81
2022/03/14 04:12:47;;;;;;;13.63;6.22;;;;;;;-3.74;73.04;96068.59;4962940;28;20234;-80
2022/03/14 04:15:15;;;;;;;21.00;7.45;;;;;;;-3.72;72.34;96082.47;4968165;28;20693;-80
2022/03/14 04:17:44;;;;;;;16.98;6.90;;;;;;;-3.97;72.90;96070.84;4968129;28;20716;-80
2022/03/14 04:20:21;;;;;;;15.55;7.32;;;;;;;-3.77;72.04;96079.59;4955781;28;20712;-80
2022/03/14 04:22:50;;;;;;;17.42;7.38;;;;;;;-3.80;72.62;96085.28;4967813;28;20191;-80
2022/03/14 04:25:17;;;;;;;18.42;8.80;;;;;;;-3.77;72.04;96090.19;4966094;28;20210;-80
2022/03/14 04:27:44;;;;;;;17.70;8.07;;;;;;;-3.70;72.08;96080.44;4968061;28;20293;-80
2022/03/14 04:30:16;;;;;;;16.38;8.00;;;;;;;-3.61;73.34;96084.50;4964010;28;20230;-80
2022/03/14 04:32:44;;;;;;;19.13;9.55;;;;;;;-3.44;74.74;96089.41;4960838;28;20227;-81
2022/03/14 04:35:11;;;;;;;17.08;7.78;;;;;;;-3.67;73.69;96090.59;4964811;28;20265;-80
2022/03/14 04:37:40;;;;;;;21.83;10.15;;;;;;;-3.61;73.41;96102.22;4967518;28;20254;-81
2022/03/14 04:40:08;;;;;;;20.63;8.85;;;;;;;-3.61;73.65;96100.38;4964001;28;20226;-81
2022/03/14 04:42:37;;;;;;;20.75;10.63;;;;;;;-3.53;73.08;96107.31;4972667;28;20199;-81
2022/03/14 04:45:04;;;;;;;29.27;12.90;;;;;;;-3.50;72.33;96106.09;4959997;28;20206;-81
2022/03/14 04:47:31;;;;;;;33.15;13.13;;;;;;;-3.57;72.67;96111.41;4965585;28;20710;-81
2022/03/14 04:49:58;;;;;;;30.58;13.40;;;;;;;-3.69;72.43;96119.09;4965466;28;20295;-80
2022/03/14 04:52:28;;;;;;;33.10;13.73;;;;;;;-3.56;72.21;96114.84;4959041;28;20210;-81
2022/03/14 04:54:56;;;;;;;21.35;10.27;;;;;;;-3.56;72.41;96117.50;4959355;28;20217;-82
2022/03/14 04:57:23;;;;;;;23.20;11.82;;;;;;;-3.85;74.22;96130.09;4960122;28;20221;-82
2022/03/14 04:59:50;;;;;;;32.03;11.98;;;;;;;-3.70;73.54;96128.09;4959384;28;20706;-82
2022/03/14 05:02:21;;;;;;;30.50;11.75;;;;;;;-3.59;73.50;96135.44;4965447;28;20678;-82
2022/03/14 05:04:48;;;;;;;30.52;11.02;;;;;;;-3.71;73.19;96137.03;4966530;28;20223;-78
2022/03/14 05:07:17;;;;;;;22.55;10.13;;;;;;;-3.65;73.34;96146.81;4961600;28;20202;-81
2022/03/14 05:09:44;;;;;;;41.53;16.83;;;;;;;-3.69;72.54;96156.16;4959625;28;20199;-81
2022/03/14 05:12:14;;;;;;;20.25;10.60;;;;;;;-3.23;72.26;96155.41;4963337;28;20206;-80
2022/03/14 05:14:41;;;;;;;19.75;8.38;;;;;;;-2.38;69.35;96154.47;4966281;28;20199;-79
2022/03/14 05:17:09;;;;;;;26.88;11.77;;;;;;;-1.15;66.29;96141.72;4961984;28;20305;-81
2022/03/14 05:19:36;;;;;;;23.80;9.02;;;;;;;0.37;62.04;96145.41;4961903;28;20712;-81
2022/03/14 05:22:04;;;;;;;23.55;11.68;;;;;;;1.61;58.20;96144.41;4966433;28;20207;-81
2022/03/14 05:24:31;;;;;;;25.15;10.80;;;;;;;2.39;55.30;96141.19;4954960;28;20666;-83
2022/03/14 05:26:58;;;;;;;32.42;14.02;;;;;;;3.16;53.77;96138.78;4967393;28;20708;-83
2022/03/14 05:29:27;;;;;;;26.67;12.77;;;;;;;3.66;51.31;96141.44;4973029;28;20229;-81
2022/03/14 05:31:54;;;;;;;24.75;12.07;;;;;;;3.88;51.12;96144.16;4967940;28;20317;-81
2022/03/14 05:34:22;;;;;;;33.17;13.80;;;;;;;3.88;49.84;96144.97;4964762;28;20210;-80
2022/03/14 05:36:49;;;;;;;32.85;12.95;;;;;;;4.27;48.88;96147.59;4966440;28;20211;-80
2022/03/14 05:39:16;;;;;;;24.15;11.50;;;;;;;4.29;48.86;96154.31;4970394;28;20317;-80
2022/03/14 05:41:43;;;;;;;30.20;12.82;;;;;;;3.81;51.12;96148.88;4969760;28;20210;-81
2022/03/14 05:44:11;;;;;;;35.85;14.73;;;;;;;4.14;49.37;96153.31;4973071;28;20290;-79
2022/03/14 05:46:39;;;;;;;27.33;12.80;;;;;;;4.45;49.18;96149.13;4968253;28;20751;-80
2022/03/14 05:49:06;;;;;;;42.40;21.13;;;;;;;4.14;49.40;96154.13;4962320;28;20227;-80
2022/03/14 05:51:36;;;;;;;29.73;14.80;;;;;;;5.31;46.79;96155.34;4976332;28;20230;-79
2022/03/14 05:54:03;;;;;;;29.38;15.20;;;;;;;5.20;46.07;96150.94;4970073;28;20226;-80
2022/03/14 05:56:30;;;;;;;37.63;17.05;;;;;;;4.45;48.71;96159.88;4968233;28;20202;-80
2022/03/14 05:58:58;;;;;;;40.80;21.63;;;;;;;5.02;47.71;96165.56;4961515;28;20273;-78
2022/03/14 06:01:25;;;;;;;33.65;17.00;;;;;;;5.05;46.59;96164.25;4962939;28;20215;-79
2022/03/14 06:03:53;;;;;;;26.23;14.23;;;;;;;4.33;47.25;96151.16;4969936;28;20230;-80
2022/03/14 06:06:21;;;;;;;27.80;13.07;;;;;;;5.94;45.73;96164.41;4970842;28;20662;-80
2022/03/14 06:08:48;;;;;;;32.75;19.40;;;;;;;6.74;43.83;96157.75;4964383;28;20269;-82
2022/03/14 06:11:15;;;;;;;35.15;19.02;;;;;;;7.34;41.84;96158.94;4977276;28;20203;-81
2022/03/14 06:13:43;;;;;;;32.33;19.63;;;;;;;7.69;40.23;96155.41;4965583;28;20227;-78
2022/03/14 06:16:10;;;;;;;41.22;20.63;;;;;;;8.10;39.62;96150.72;4978064;28;20309;-81
2022/03/14 06:18:37;;;;;;;39.15;21.58;;;;;;;7.77;40.14;96157.56;4969175;28;20211;-80
2022/03/14 06:21:06;;;;;;;45.17;23.58;;;;;;;8.11;39.39;96160.44;4970113;28;20202;-81
2022/03/14 06:23:34;;;;;;;44.22;23.42;;;;;;;8.32;38.60;96162.06;4966746;28;20206;-82
2022/03/14 06:26:01;;;;;;;49.10;22.40;;;;;;;8.58;38.75;96167.34;4964500;28;20231;-82
2022/03/14 06:28:29;;;;;;;47.05;22.52;;;;;;;8.24;38.82;96162.56;4977281;28;20261;-81
2022/03/14 06:30:56;;;;;;;41.97;22.52;;;;;;;8.45;38.49;96169.56;4962361;28;20318;-81
2022/03/14 06:33:22;;;;;;;41.13;23.85;;;;;;;8.11;38.95;96168.53;4965607;28;20702;-82
2022/03/14 06:35:50;;;;;;;50.30;26.40;;;;;;;8.13;38.46;96172.59;4957656;28;20203;-82
2022/03/14 06:38:18;;;;;;;54.92;27.08;;;;;;;7.84;38.58;96177.78;4974198;28;20214;-80
2022/03/14 06:40:47;;;;;;;46.80;25.38;;;;;;;7.47;39.52;96182.66;4962449;28;20222;-80
2022/03/14 06:43:15;;;;;;;48.55;25.73;;;;;;;7.75;39.44;96182.13;4977318;28;20213;-81
2022/03/14 06:45:46;;;;;;;51.20;27.85;;;;;;;8.36;38.42;96182.00;4964952;28;20206;-80
2022/03/14 06:48:13;;;;;;;50.35;28.13;;;;;;;8.41;38.29;96195.50;4965672;28;20793;-80
2022/03/14 06:50:44;;;;;;;50.58;27.48;;;;;;;7.83;38.21;96195.03;4968670;28;20872;-79
2022/03/14 06:53:11;;;;;;;46.28;26.30;;;;;;;7.96;38.28;96190.97;4969286;28;20657;-79
2022/03/14 06:55:40;;;;;;;46.63;26.50;;;;;;;8.01;38.16;96195.56;4975455;28;20293;-79
2022/03/14 06:58:07;;;;;;;47.85;25.92;;;;;;;7.84;37.93;96191.25;4963950;28;20307;-79
2022/03/14 07:00:34;;;;;;;48.10;26.17;;;;;;;7.99;37.91;96197.72;4967815;28;20266;-83
2022/03/14 07:03:01;;;;;;;51.35;27.52;;;;;;;8.19;37.38;96197.69;4967537;28;20202;-81
2022/03/14 07:05:28;;;;;;;42.92;25.35;;;;;;;7.62;37.22;96201.53;4967177;28;20621;-77
2022/03/14 07:07:55;;;;;;;43.88;24.42;;;;;;;8.73;57.00;96205.13;4966594;28;20202;-78
2022/03/14 07:10:23;;;;;;;47.95;24.50;;;;;;;9.90;51.55;96195.13;4960424;28;20612;-78
2022/03/14 07:12:51;;;;;;;46.85;24.63;;;;;;;10.30;54.63;96193.16;4978014;28;20202;-77
2022/03/14 07:15:19;;;;;;;40.95;23.90;;;;;;;10.69;48.81;96190.25;4960405;28;20226;-79
2022/03/14 07:17:46;;;;;;;44.13;24.42;;;;;;;8.25;38.75;96204.69;4959881;28;20650;-79
2022/03/14 07:20:13;;;;;;;40.20;24.23;;;;;;;9.26;48.11;96207.00;4966211;28;20235;-78
2022/03/14 07:22:51;;;;;;;49.80;28.10;;;;;;;8.40;37.67;96198.47;4974261;28;20214;-79
2022/03/14 07:25:23;;;;;;;49.63;25.52;;;;;;;7.68;38.13;96208.53;4964848;28;20221;-78
2022/03/14 07:27:52;;;;;;;43.28;25.45;;;;;;;7.69;38.68;96209.34;4957626;28;20305;-81
2022/03/14 07:30:20;;;;;;;44.22;26.45;;;;;;;7.61;39.30;96213.41;4965799;28;20202;-80
2022/03/14 07:32:47;;;;;;;47.30;25.05;;;;;;;7.46;39.46;96213.38;4959634;28;20223;-80
2022/03/14 07:35:15;;;;;;;47.33;25.83;;;;;;;7.02;39.80;96221.94;4964247;28;20213;-80
2022/03/14 07:37:42;;;;;;;47.42;27.27;;;;;;;6.67;40.98;96224.53;4962185;28;20202;-79
2022/03/14 07:40:11;;;;;;;44.33;25.83;;;;;;;5.69;42.26;96221.50;4964459;28;20257;-81
2022/03/14 07:42:43;;;;;;;45.65;25.30;;;;;;;5.19;43.43;96229.94;4972251;28;20210;-78
2022/03/14 07:45:13;;;;;;;44.75;23.90;;;;;;;4.59;43.72;96234.38;4969080;28;20199;-78
2022/03/14 07:47:40;;;;;;;34.85;19.80;;;;;;;4.25;44.05;96236.34;4964801;28;20329;-80
2022/03/14 07:50:09;;;;;;;40.10;21.30;;;;;;;3.65;46.06;96246.19;4954749;28;20237;-78
2022/03/14 07:52:37;;;;;;;40.08;22.50;;;;;;;3.04;47.65;96245.13;4982671;28;20198;-82
2022/03/14 07:55:06;;;;;;;39.80;21.90;;;;;;;3.12;47.67;96236.75;4975581;28;20437;-83
2022/03/14 07:57:37;;;;;;;44.03;21.42;;;;;;;3.04;50.09;96239.78;4963234;28;20285;-83
2022/03/14 08:00:10;;;;;;;47.30;22.25;;;;;;;3.71;48.57;96245.19;4969404;28;20227;-82
2022/03/14 08:02:42;;;;;;;47.08;23.70;;;;;;;4.37;47.65;96230.06;4979418;28;20281;-80
2022/03/14 08:05:13;;;;;;;42.03;23.13;;;;;;;4.76;45.66;96233.50;4961103;28;20229;-81
2022/03/14 08:07:45;;;;;;;43.33;23.75;;;;;;;4.66;45.88;96231.50;4970428;28;20226;-82
2022/03/14 08:10:15;;;;;;;42.65;22.42;;;;;;;4.79;45.70;96220.38;4968983;28;20203;-88
2022/03/14 08:12:49;;;;;;;39.85;23.00;;;;;;;4.54;45.16;96223.56;4959755;28;20252;-82
2022/03/14 08:15:20;;;;;;;39.15;19.60;;;;;;;4.51;45.02;96220.59;4959922;28;20485;-81
2022/03/14 08:17:49;;;;;;;34.22;18.98;;;;;;;4.41;44.19;96229.31;4958196;28;20242;-81
2022/03/14 08:20:16;;;;;;;33.63;17.20;;;;;;;4.50;43.45;96224.34;4966912;28;20810;-82
2022/03/14 08:22:44;;;;;;;39.50;19.23;;;;;;;4.46;44.04;96232.06;4977011;28;20298;-82
2022/03/14 08:25:11;;;;;;;33.60;17.88;;;;;;;4.38;44.19;96235.16;4965260;28;20214;-81
2022/03/14 08:27:40;;;;;;;38.42;19.08;;;;;;;5.02;44.09;96229.22;4953493;28;20262;-84
2022/03/14 08:30:09;;;;;;;36.67;18.73;;;;;;;4.34;43.73;96230.56;4954736;28;20217;-87
2022/03/14 08:32:39;;;;;;;34.17;17.23;;;;;;;4.26;44.72;96229.09;4967018;28;20225;-85
2022/03/14 08:35:10;;;;;;;33.00;18.08;;;;;;;4.12;44.88;96231.34;4965621;28;20202;-84
2022/03/14 08:37:37;;;;;;;36.65;19.05;;;;;;;4.25;45.15;96220.25;4960783;28;20230;-84
2022/03/14 08:40:10;;;;;;;29.92;17.48;;;;;;;4.13;44.24;96226.78;4974247;28;20226;-90
2022/03/14 08:42:37;;;;;;;31.85;16.55;;;;;;;4.54;43.27;96233.50;4971541;28;20282;-84
2022/03/14 08:45:05;;;;;;;28.77;16.83;;;;;;;4.77;44.18;96233.25;4959104;28;20209;-82
2022/03/14 08:47:34;;;;;;;30.05;15.70;;;;;;;4.35;43.36;96229.50;4965908;28;20623;-82
2022/03/14 08:50:02;;;;;;;29.70;16.27;;;;;;;4.36;43.34;96236.50;4964652;28;20257;-81
2022/03/14 08:52:33;;;;;;;31.55;15.90;;;;;;;4.79;44.39;96236.47;4968200;28;20294;-82
2022/03/14 08:55:03;;;;;;;35.30;16.40;;;;;;;4.98;42.78;96235.09;4966392;28;20224;-85
2022/03/14 08:57:30;;;;;;;30.98;15.80;;;;;;;4.99;43.59;96236.72;4957657;28;20211;-88
2022/03/14 08:59:58;;;;;;;26.80;13.15;;;;;;;5.07;42.14;96238.13;4959132;28;20242;-84
2022/03/14 09:02:25;;;;;;;28.05;12.73;;;;;;;5.13;42.65;96225.56;4959809;28;20209;-81
2022/03/14 09:04:52;;;;;;;19.65;11.02;;;;;;;4.48;42.60;96234.50;4961410;28;20241;-83
2022/03/14 09:07:26;;;;;;;21.52;11.52;;;;;;;4.79;43.41;96219.56;4963431;28;20289;-83
2022/03/14 09:09:54;;;;;;;25.50;11.63;;;;;;;5.02;42.07;96221.97;4964876;28;20197;-82
2022/03/14 09:12:21;;;;;;;24.83;11.60;;;;;;;5.57;41.25;96216.31;4964012;28;20207;-88
2022/03/14 09:14:49;;;;;;;15.18;9.18;;;;;;;5.29;40.62;96216.59;4956644;28;20590;-87
2022/03/14 09:17:17;;;;;;;18.08;7.75;;;;;;;4.92;40.11;96219.19;4958454;28;20497;-87
2022/03/14 09:19:44;;;;;;;20.05;8.65;;;;;;;4.84;41.06;96222.31;4960671;28;20206;-82
2022/03/14 09:22:11;;;;;;;23.27;10.95;;;;;;;5.13;41.69;96220.19;4954553;28;20207;-84
2022/03/14 09:24:38;;;;;;;16.58;6.60;;;;;;;5.61;39.17;96209.31;4960132;28;20217;-82
2022/03/14 09:27:08;;;;;;;13.57;7.13;;;;;;;4.97;39.82;96222.72;4957397;28;20250;-87
2022/03/14 09:29:36;;;;;;;10.90;6.45;;;;;;;5.24;38.72;96216.53;4959945;28;20210;-87
2022/03/14 09:32:03;;;;;;;9.93;5.60;;;;;;;5.07;38.99;96215.81;4957690;28;20230;-88
2022/03/14 09:34:31;;;;;;;15.02;6.50;;;;;;;5.31;41.42;96206.41;4960412;28;20213;-83
2022/03/14 09:36:59;;;;;;;17.45;7.25;;;;;;;5.54;40.17;96206.06;4957252;28;20211;-82
2022/03/14 09:39:26;;;;;;;11.88;6.35;;;;;;;5.61;38.69;96208.50;4963214;28;20216;-81
2022/03/14 09:41:54;;;;;;;12.95;6.43;;;;;;;5.48;38.48;96206.25;4974935;28;20230;-82
2022/03/14 09:44:28;;;;;;;10.93;5.60;;;;;;;5.62;39.82;96213.63;4969385;28;20202;-81
2022/03/14 09:46:59;;;;;;;6.60;3.15;;;;;;;5.02;37.79;96213.09;4969096;28;20223;-82
2022/03/14 09:49:30;;;;;;;8.40;3.90;;;;;;;5.46;38.00;96203.84;4963397;28;20313;-78
2022/03/14 09:52:00;;;;;;;7.18;4.22;;;;;;;5.78;37.33;96221.81;4962419;28;20643;-83
2022/03/14 09:54:27;;;;;;;7.68;4.63;;;;;;;5.44;37.14;96211.34;4965821;28;20207;-80
2022/03/14 09:56:56;;;;;;;7.72;4.75;;;;;;;5.81;37.95;96213.25;4955712;28;20206;-83
2022/03/14 09:59:24;;;;;;;10.98;5.20;;;;;;;6.29;38.12;96223.78;4960495;28;20211;-82
2022/03/14 10:01:53;;;;;;;10.85;5.05;;;;;;;6.50;37.22;96215.81;4964518;28;20359;-83
2022/03/14 10:04:20;;;;;;;5.20;3.58;;;;;;;6.40;36.11;96217.41;4964526;28;20286;-78
2022/03/14 10:06:49;;;;;;;11.77;5.20;;;;;;;6.13;37.22;96219.41;4971799;28;20330;-80
2022/03/14 10:09:17;;;;;;;9.10;4.45;;;;;;;5.55;37.44;96218.44;4965024;28;20206;-84
2022/03/14 10:11:44;;;;;;;9.52;5.53;;;;;;;5.74;38.03;96215.34;4969739;28;20225;-86
2022/03/14 10:14:17;;;;;;;12.30;5.22;;;;;;;6.05;38.06;96209.13;4968488;28;20218;-86
2022/03/14 10:16:46;;;;;;;9.05;4.90;;;;;;;6.33;37.04;96208.75;4961516;28;20206;-81
2022/03/14 10:19:20;;;;;;;7.72;4.78;;;;;;;6.62;37.16;96206.47;4970874;28;20210;-82
2022/03/14 10:21:50;;;;;;;10.02;4.97;;;;;;;6.11;37.89;96210.78;4956266;28;20603;-83
2022/03/14 10:24:22;;;;;;;10.48;5.22;;;;;;;6.38;37.61;96208.78;4957847;28;20258;-84
2022/03/14 10:26:52;;;;;;;5.93;3.40;;;;;;;6.30;34.77;96209.25;4966980;28;20246;-82
2022/03/14 10:29:21;;;;;;;8.13;3.67;;;;;;;5.82;35.68;96204.09;4977113;28;20210;-82
2022/03/14 10:31:56;;;;;;;4.65;3.17;;;;;;;6.14;36.72;96204.91;4965816;28;20227;-79
2022/03/14 10:34:24;;;;;;;6.90;3.72;;;;;;;6.42;35.99;96207.16;4985830;28;20225;-84
2022/03/14 10:36:53;;;;;;;6.28;3.50;;;;;;;5.98;34.81;96201.31;4997889;28;20396;-87
2022/03/14 10:39:23;;;;;;;7.07;3.85;;;;;;;6.18;35.95;96195.22;4978960;28;20210;-83
2022/03/14 10:42:05;;;;;;;5.65;4.03;;;;;;;6.67;37.03;96186.81;4975868;28;20306;-82
2022/03/14 10:44:35;;;;;;;9.10;6.43;;;;;;;6.99;36.58;96184.75;4964822;28;20289;-85
2022/03/14 10:47:05;;;;;;;6.70;4.60;;;;;;;7.12;35.42;96189.63;4963004;28;20270;-85
2022/03/14 10:49:35;;;;;;;8.20;4.78;;;;;;;6.61;35.89;96198.63;4977134;28;20697;-85
2022/03/14 10:52:05;;;;;;;9.93;4.32;;;;;;;6.10;36.71;96214.53;4975831;28;20233;-85
2022/03/14 10:54:36;;;;;;;8.77;4.25;;;;;;;5.79;37.72;96193.84;4976226;28;20201;-89
2022/03/14 10:57:08;;;;;;;8.90;5.45;;;;;;;5.66;37.68;96181.69;4963649;28;20233;-84
2022/03/14 10:59:38;;;;;;;9.02;4.82;;;;;;;6.14;37.52;96186.06;4964000;28;20207;-82
2022/03/14 11:02:09;;;;;;;7.60;4.63;;;;;;;6.48;37.72;96193.75;4967748;28;20226;-84
2022/03/14 11:04:47;;;;;;;8.70;5.20;;;;;;;6.89;37.37;96187.41;4968453;28;20249;-82
2022/03/14 11:07:15;;;;;;;6.50;3.90;;;;;;;6.72;35.74;96178.75;4963813;28;20257;-83
2022/03/14 11:09:44;;;;;;;6.25;3.75;;;;;;;6.17;34.93;96193.59;4964018;28;20233;-88
2022/03/14 11:12:16;;;;;;;8.27;4.47;;;;;;;6.35;35.93;96185.06;4975690;28;20221;-87
2022/03/14 11:14:52;;;;;;;7.22;4.20;;;;;;;6.13;35.88;96187.13;4973963;28;20222;-81
2022/03/14 11:17:22;;;;;;;7.25;5.00;;;;;;;6.38;36.93;96184.56;4964922;28;20198;-82
2022/03/14 11:19:50;;;;;;;7.50;4.63;;;;;;;6.83;37.21;96169.66;4960738;28;20211;-85
2022/03/14 11:22:18;;;;;;;7.00;4.55;;;;;;;6.56;35.93;96180.56;4973123;28;20241;-89
2022/03/14 11:24:47;;;;;;;11.05;4.60;;;;;;;6.56;38.22;96177.09;4958789;28;20523;-83
2022/03/14 11:27:23;;;;;;;6.85;4.85;;;;;;;7.02;37.12;96167.25;4960181;28;20330;-81
2022/03/14 11:29:51;;;;;;;10.35;5.00;;;;;;;7.38;36.28;96160.03;4965687;28;20214;-85